sensor_id;sensor_type;location;lat;lon;timestamp;P1;durP1;ratioP1;P2;durP2;ratioP2
19762;SDS011;10040;42.614;23.164;2022-07-29T00:01:26;8.93;;;8.10;;
19762;SDS011;10040;42.614;23.164;2022-07-29T00:03:53;10.75;;;8.18;;
19762;SDS011;10040;42.614;23.164;2022-07-29T00:06:21;16.75;;;10.18;;
19762;SDS011;10040;42.614;23.164;2022-07-29T00:08:48;9.05;;;7.85;;
19762;SDS011;10040;42.614;23.164;2022-07-29T00:11:17;8.75;;;7.07;;
19762;SDS011;10040;42.614;23.164;2022-07-29T00:13:44;8.50;;;7.60;;
19762;SDS011;10040;42.614;23.164;2022-07-29T00:16:12;8.50;;;7.40;;
19762;SDS011;10040;42.614;23.164;2022-07-29T00:18:39;7.80;;;7.00;;
19762;SDS011;10040;42.614;23.164;2022-07-29T00:21:07;7.68;;;6.55;;
19762;SDS011;10040;42.614;23.164;2022-07-29T00:23:34;8.88;;;7.18;;
19762;SDS011;10040;42.614;23.164;2022-07-29T00:26:02;7.50;;;6.78;;
19762;SDS011;10040;42.614;23.164;2022-07-29T00:28:30;7.20;;;6.45;;
19762;SDS011;10040;42.614;23.164;2022-07-29T00:30:58;9.32;;;6.68;;
19762;SDS011;10040;42.614;23.164;2022-07-29T00:33:25;7.57;;;6.88;;
19762;SDS011;10040;42.614;23.164;2022-07-29T00:35:52;10.07;;;6.65;;
19762;SDS011;10040;42.614;23.164;2022-07-29T00:38:19;9.05;;;6.95;;
19762;SDS011;10040;42.614;23.164;2022-07-29T00:40:47;7.38;;;6.68;;
19762;SDS011;10040;42.614;23.164;2022-07-29T00:43:15;8.13;;;7.07;;
19762;SDS011;10040;42.614;23.164;2022-07-29T00:45:45;10.73;;;7.13;;
19762;SDS011;10040;42.614;23.164;2022-07-29T00:48:12;9.75;;;7.10;;
19762;SDS011;10040;42.614;23.164;2022-07-29T00:50:40;10.32;;;7.82;;
19762;SDS011;10040;42.614;23.164;2022-07-29T00:53:07;9.35;;;7.25;;
19762;SDS011;10040;42.614;23.164;2022-07-29T00:55:35;7.45;;;6.55;;
19762;SDS011;10040;42.614;23.164;2022-07-29T00:58:03;9.30;;;6.78;;
19762;SDS011;10040;42.614;23.164;2022-07-29T01:00:31;11.05;;;7.40;;
19762;SDS011;10040;42.614;23.164;2022-07-29T01:03:00;15.57;;;7.53;;
19762;SDS011;10040;42.614;23.164;2022-07-29T01:05:27;9.13;;;7.63;;
19762;SDS011;10040;42.614;23.164;2022-07-29T01:07:56;9.02;;;7.60;;
19762;SDS011;10040;42.614;23.164;2022-07-29T01:10:24;10.15;;;7.13;;
19762;SDS011;10040;42.614;23.164;2022-07-29T01:12:53;9.70;;;7.60;;
19762;SDS011;10040;42.614;23.164;2022-07-29T01:15:24;9.95;;;7.50;;
19762;SDS011;10040;42.614;23.164;2022-07-29T01:17:54;9.27;;;7.05;;
19762;SDS011;10040;42.614;23.164;2022-07-29T01:20:29;10.73;;;7.43;;
19762;SDS011;10040;42.614;23.164;2022-07-29T01:23:08;8.85;;;7.43;;
19762;SDS011;10040;42.614;23.164;2022-07-29T01:28:49;10.60;;;7.47;;
19762;SDS011;10040;42.614;23.164;2022-07-29T01:31:35;10.35;;;7.57;;
19762;SDS011;10040;42.614;23.164;2022-07-29T01:34:10;9.00;;;6.72;;
19762;SDS011;10040;42.614;23.164;2022-07-29T01:36:45;10.35;;;7.90;;
19762;SDS011;10040;42.614;23.164;2022-07-29T01:39:18;9.20;;;6.75;;
19762;SDS011;10040;42.614;23.164;2022-07-29T01:41:53;7.38;;;6.68;;
19762;SDS011;10040;42.614;23.164;2022-07-29T01:44:30;7.55;;;6.63;;
19762;SDS011;10040;42.614;23.164;2022-07-29T01:47:00;11.38;;;6.85;;
19762;SDS011;10040;42.614;23.164;2022-07-29T01:49:33;10.05;;;6.88;;
19762;SDS011;10040;42.614;23.164;2022-07-29T01:52:04;8.93;;;7.28;;
19762;SDS011;10040;42.614;23.164;2022-07-29T01:54:35;8.07;;;6.82;;
19762;SDS011;10040;42.614;23.164;2022-07-29T01:57:09;7.38;;;6.57;;
19762;SDS011;10040;42.614;23.164;2022-07-29T01:59:39;10.05;;;6.88;;
19762;SDS011;10040;42.614;23.164;2022-07-29T02:02:09;8.90;;;6.72;;
19762;SDS011;10040;42.614;23.164;2022-07-29T02:04:38;9.15;;;6.80;;
19762;SDS011;10040;42.614;23.164;2022-07-29T02:07:08;7.57;;;6.47;;
19762;SDS011;10040;42.614;23.164;2022-07-29T02:09:40;7.70;;;6.60;;
19762;SDS011;10040;42.614;23.164;2022-07-29T02:12:09;7.10;;;6.25;;
19762;SDS011;10040;42.614;23.164;2022-07-29T02:14:40;8.65;;;6.80;;
19762;SDS011;10040;42.614;23.164;2022-07-29T02:17:11;9.93;;;6.75;;
19762;SDS011;10040;42.614;23.164;2022-07-29T02:19:41;10.50;;;6.70;;
19762;SDS011;10040;42.614;23.164;2022-07-29T02:22:10;6.90;;;6.20;;
19762;SDS011;10040;42.614;23.164;2022-07-29T02:24:38;6.47;;;5.88;;
19762;SDS011;10040;42.614;23.164;2022-07-29T02:27:07;7.53;;;6.10;;
19762;SDS011;10040;42.614;23.164;2022-07-29T02:29:36;10.40;;;6.47;;
19762;SDS011;10040;42.614;23.164;2022-07-29T02:32:07;8.18;;;6.18;;
19762;SDS011;10040;42.614;23.164;2022-07-29T02:34:39;10.48;;;6.10;;
19762;SDS011;10040;42.614;23.164;2022-07-29T02:37:08;8.65;;;6.22;;
19762;SDS011;10040;42.614;23.164;2022-07-29T02:39:37;9.57;;;6.15;;
19762;SDS011;10040;42.614;23.164;2022-07-29T02:42:08;7.03;;;6.15;;
19762;SDS011;10040;42.614;23.164;2022-07-29T02:44:39;6.47;;;5.88;;
19762;SDS011;10040;42.614;23.164;2022-07-29T02:47:10;6.65;;;5.93;;
19762;SDS011;10040;42.614;23.164;2022-07-29T02:49:42;9.25;;;5.95;;
19762;SDS011;10040;42.614;23.164;2022-07-29T02:52:19;6.35;;;5.40;;
19762;SDS011;10040;42.614;23.164;2022-07-29T02:54:51;7.72;;;5.47;;
19762;SDS011;10040;42.614;23.164;2022-07-29T02:57:28;6.43;;;5.82;;
19762;SDS011;10040;42.614;23.164;2022-07-29T03:00:00;10.82;;;5.63;;
19762;SDS011;10040;42.614;23.164;2022-07-29T03:02:34;6.55;;;5.88;;
19762;SDS011;10040;42.614;23.164;2022-07-29T03:05:04;7.78;;;5.28;;
19762;SDS011;10040;42.614;23.164;2022-07-29T03:07:35;5.82;;;5.22;;
19762;SDS011;10040;42.614;23.164;2022-07-29T03:10:03;6.50;;;5.80;;
19762;SDS011;10040;42.614;23.164;2022-07-29T03:12:33;6.55;;;5.88;;
19762;SDS011;10040;42.614;23.164;2022-07-29T03:15:01;6.72;;;5.75;;
19762;SDS011;10040;42.614;23.164;2022-07-29T03:17:29;8.88;;;5.28;;
19762;SDS011;10040;42.614;23.164;2022-07-29T03:19:59;9.35;;;5.70;;
19762;SDS011;10040;42.614;23.164;2022-07-29T03:22:28;6.00;;;5.05;;
19762;SDS011;10040;42.614;23.164;2022-07-29T03:24:56;6.30;;;5.70;;
19762;SDS011;10040;42.614;23.164;2022-07-29T03:27:23;6.38;;;5.43;;
19762;SDS011;10040;42.614;23.164;2022-07-29T03:29:51;5.32;;;4.82;;
19762;SDS011;10040;42.614;23.164;2022-07-29T03:32:18;8.35;;;5.50;;
19762;SDS011;10040;42.614;23.164;2022-07-29T03:34:45;6.60;;;5.38;;
19762;SDS011;10040;42.614;23.164;2022-07-29T03:37:14;5.47;;;4.97;;
19762;SDS011;10040;42.614;23.164;2022-07-29T03:39:42;8.10;;;5.13;;
19762;SDS011;10040;42.614;23.164;2022-07-29T03:42:11;6.82;;;4.80;;
19762;SDS011;10040;42.614;23.164;2022-07-29T03:44:42;5.55;;;5.00;;
19762;SDS011;10040;42.614;23.164;2022-07-29T03:47:13;7.80;;;6.70;;
19762;SDS011;10040;42.614;23.164;2022-07-29T03:49:44;6.13;;;5.05;;
19762;SDS011;10040;42.614;23.164;2022-07-29T03:52:16;5.25;;;4.72;;
19762;SDS011;10040;42.614;23.164;2022-07-29T03:54:44;7.75;;;5.20;;
19762;SDS011;10040;42.614;23.164;2022-07-29T03:57:12;5.88;;;5.10;;
19762;SDS011;10040;42.614;23.164;2022-07-29T03:59:41;7.07;;;4.80;;
19762;SDS011;10040;42.614;23.164;2022-07-29T04:02:10;6.65;;;5.10;;
19762;SDS011;10040;42.614;23.164;2022-07-29T04:04:38;6.40;;;5.40;;
19762;SDS011;10040;42.614;23.164;2022-07-29T04:07:05;8.10;;;5.15;;
19762;SDS011;10040;42.614;23.164;2022-07-29T04:09:34;5.45;;;4.95;;
19762;SDS011;10040;42.614;23.164;2022-07-29T04:12:02;5.18;;;4.68;;
19762;SDS011;10040;42.614;23.164;2022-07-29T04:14:30;6.55;;;4.82;;
19762;SDS011;10040;42.614;23.164;2022-07-29T04:16:58;5.95;;;4.75;;
19762;SDS011;10040;42.614;23.164;2022-07-29T04:19:25;7.68;;;4.90;;
19762;SDS011;10040;42.614;23.164;2022-07-29T04:21:53;5.38;;;4.88;;
19762;SDS011;10040;42.614;23.164;2022-07-29T04:24:20;5.32;;;4.72;;
19762;SDS011;10040;42.614;23.164;2022-07-29T04:26:49;7.57;;;5.18;;
19762;SDS011;10040;42.614;23.164;2022-07-29T04:29:16;5.65;;;4.90;;
19762;SDS011;10040;42.614;23.164;2022-07-29T04:31:44;5.50;;;4.95;;
19762;SDS011;10040;42.614;23.164;2022-07-29T04:34:11;13.82;;;7.85;;
19762;SDS011;10040;42.614;23.164;2022-07-29T04:36:39;26.05;;;10.63;;
19762;SDS011;10040;42.614;23.164;2022-07-29T04:39:06;35.10;;;13.57;;
19762;SDS011;10040;42.614;23.164;2022-07-29T04:41:34;63.25;;;23.73;;
19762;SDS011;10040;42.614;23.164;2022-07-29T04:44:03;77.53;;;30.20;;
19762;SDS011;10040;42.614;23.164;2022-07-29T04:46:31;69.45;;;30.30;;
19762;SDS011;10040;42.614;23.164;2022-07-29T04:48:59;41.80;;;20.73;;
19762;SDS011;10040;42.614;23.164;2022-07-29T04:51:26;84.95;;;35.75;;
19762;SDS011;10040;42.614;23.164;2022-07-29T04:53:53;121.15;;;40.58;;
19762;SDS011;10040;42.614;23.164;2022-07-29T04:56:21;102.68;;;35.10;;
19762;SDS011;10040;42.614;23.164;2022-07-29T04:58:49;64.53;;;25.77;;
19762;SDS011;10040;42.614;23.164;2022-07-29T05:01:18;52.60;;;23.08;;
19762;SDS011;10040;42.614;23.164;2022-07-29T05:03:46;45.05;;;17.95;;
19762;SDS011;10040;42.614;23.164;2022-07-29T05:06:13;17.80;;;10.55;;
19762;SDS011;10040;42.614;23.164;2022-07-29T05:08:40;35.13;;;13.88;;
19762;SDS011;10040;42.614;23.164;2022-07-29T05:11:08;27.15;;;12.20;;
19762;SDS011;10040;42.614;23.164;2022-07-29T05:13:36;28.77;;;10.10;;
19762;SDS011;10040;42.614;23.164;2022-07-29T05:16:03;16.98;;;9.25;;
19762;SDS011;10040;42.614;23.164;2022-07-29T05:18:32;15.23;;;8.82;;
19762;SDS011;10040;42.614;23.164;2022-07-29T05:21:00;15.50;;;9.23;;
19762;SDS011;10040;42.614;23.164;2022-07-29T05:23:27;11.75;;;8.13;;
19762;SDS011;10040;42.614;23.164;2022-07-29T05:25:55;20.63;;;9.30;;
19762;SDS011;10040;42.614;23.164;2022-07-29T05:28:22;19.60;;;9.02;;
19762;SDS011;10040;42.614;23.164;2022-07-29T05:30:50;17.80;;;8.57;;
19762;SDS011;10040;42.614;23.164;2022-07-29T05:33:17;12.10;;;7.50;;
19762;SDS011;10040;42.614;23.164;2022-07-29T05:35:46;15.95;;;8.30;;
19762;SDS011;10040;42.614;23.164;2022-07-29T05:38:13;11.80;;;7.95;;
19762;SDS011;10040;42.614;23.164;2022-07-29T05:40:41;13.02;;;7.72;;
19762;SDS011;10040;42.614;23.164;2022-07-29T05:43:08;12.10;;;7.80;;
19762;SDS011;10040;42.614;23.164;2022-07-29T05:45:36;9.80;;;7.50;;
19762;SDS011;10040;42.614;23.164;2022-07-29T05:48:05;8.50;;;6.93;;
19762;SDS011;10040;42.614;23.164;2022-07-29T05:50:32;9.25;;;7.00;;
19762;SDS011;10040;42.614;23.164;2022-07-29T05:53:01;9.50;;;7.40;;
19762;SDS011;10040;42.614;23.164;2022-07-29T05:55:29;10.32;;;8.35;;
19762;SDS011;10040;42.614;23.164;2022-07-29T05:57:56;10.55;;;9.18;;
19762;SDS011;10040;42.614;23.164;2022-07-29T06:00:24;11.55;;;9.43;;
19762;SDS011;10040;42.614;23.164;2022-07-29T06:02:51;15.02;;;9.63;;
19762;SDS011;10040;42.614;23.164;2022-07-29T06:05:19;15.48;;;10.23;;
19762;SDS011;10040;42.614;23.164;2022-07-29T06:07:46;11.65;;;8.85;;
19762;SDS011;10040;42.614;23.164;2022-07-29T06:10:15;15.13;;;10.82;;
19762;SDS011;10040;42.614;23.164;2022-07-29T06:12:42;13.18;;;10.68;;
19762;SDS011;10040;42.614;23.164;2022-07-29T06:15:10;15.15;;;10.43;;
19762;SDS011;10040;42.614;23.164;2022-07-29T06:17:37;12.80;;;9.88;;
19762;SDS011;10040;42.614;23.164;2022-07-29T06:20:05;13.52;;;10.40;;
19762;SDS011;10040;42.614;23.164;2022-07-29T06:22:33;13.77;;;10.40;;
19762;SDS011;10040;42.614;23.164;2022-07-29T06:25:01;14.98;;;10.52;;
19762;SDS011;10040;42.614;23.164;2022-07-29T06:27:31;15.70;;;10.48;;
19762;SDS011;10040;42.614;23.164;2022-07-29T06:29:58;13.48;;;9.43;;
19762;SDS011;10040;42.614;23.164;2022-07-29T06:32:27;16.58;;;10.98;;
19762;SDS011;10040;42.614;23.164;2022-07-29T06:34:56;10.88;;;9.43;;
19762;SDS011;10040;42.614;23.164;2022-07-29T06:37:24;8.88;;;8.07;;
19762;SDS011;10040;42.614;23.164;2022-07-29T06:39:51;9.50;;;8.57;;
19762;SDS011;10040;42.614;23.164;2022-07-29T06:42:42;9.13;;;8.23;;
19762;SDS011;10040;42.614;23.164;2022-07-29T06:45:11;13.45;;;8.80;;
19762;SDS011;10040;42.614;23.164;2022-07-29T06:47:38;9.82;;;8.85;;
19762;SDS011;10040;42.614;23.164;2022-07-29T06:50:06;9.15;;;8.20;;
19762;SDS011;10040;42.614;23.164;2022-07-29T06:52:37;10.80;;;7.72;;
19762;SDS011;10040;42.614;23.164;2022-07-29T06:55:06;10.38;;;7.00;;
19762;SDS011;10040;42.614;23.164;2022-07-29T06:57:35;8.75;;;7.10;;
19762;SDS011;10040;42.614;23.164;2022-07-29T07:00:04;7.65;;;6.05;;
19762;SDS011;10040;42.614;23.164;2022-07-29T07:02:33;7.38;;;5.25;;
19762;SDS011;10040;42.614;23.164;2022-07-29T07:05:00;11.80;;;5.85;;
19762;SDS011;10040;42.614;23.164;2022-07-29T07:07:28;7.85;;;5.78;;
19762;SDS011;10040;42.614;23.164;2022-07-29T07:09:55;7.05;;;5.20;;
19762;SDS011;10040;42.614;23.164;2022-07-29T07:12:23;7.50;;;5.72;;
19762;SDS011;10040;42.614;23.164;2022-07-29T07:14:50;7.78;;;6.28;;
19762;SDS011;10040;42.614;23.164;2022-07-29T07:17:20;6.72;;;6.18;;
19762;SDS011;10040;42.614;23.164;2022-07-29T07:19:47;6.85;;;5.63;;
19762;SDS011;10040;42.614;23.164;2022-07-29T07:22:14;9.13;;;6.10;;
19762;SDS011;10040;42.614;23.164;2022-07-29T07:24:42;6.78;;;5.22;;
19762;SDS011;10040;42.614;23.164;2022-07-29T07:27:09;6.60;;;5.95;;
19762;SDS011;10040;42.614;23.164;2022-07-29T07:29:36;8.73;;;6.07;;
19762;SDS011;10040;42.614;23.164;2022-07-29T07:32:06;8.75;;;5.85;;
19762;SDS011;10040;42.614;23.164;2022-07-29T07:34:35;6.53;;;5.65;;
19762;SDS011;10040;42.614;23.164;2022-07-29T07:37:03;6.13;;;5.30;;
19762;SDS011;10040;42.614;23.164;2022-07-29T07:39:31;6.75;;;5.65;;
19762;SDS011;10040;42.614;23.164;2022-07-29T07:41:58;7.05;;;5.70;;
19762;SDS011;10040;42.614;23.164;2022-07-29T07:44:26;7.15;;;5.80;;
19762;SDS011;10040;42.614;23.164;2022-07-29T07:46:53;8.43;;;5.57;;
19762;SDS011;10040;42.614;23.164;2022-07-29T07:49:21;6.38;;;5.55;;
19762;SDS011;10040;42.614;23.164;2022-07-29T07:51:50;10.35;;;5.50;;
19762;SDS011;10040;42.614;23.164;2022-07-29T07:54:18;7.93;;;5.20;;
19762;SDS011;10040;42.614;23.164;2022-07-29T07:56:45;8.68;;;5.15;;
19762;SDS011;10040;42.614;23.164;2022-07-29T07:59:14;7.47;;;5.72;;
19762;SDS011;10040;42.614;23.164;2022-07-29T08:01:42;5.93;;;5.10;;
19762;SDS011;10040;42.614;23.164;2022-07-29T08:04:10;9.75;;;5.50;;
19762;SDS011;10040;42.614;23.164;2022-07-29T08:06:37;9.30;;;5.80;;
19762;SDS011;10040;42.614;23.164;2022-07-29T08:09:06;6.05;;;5.40;;
19762;SDS011;10040;42.614;23.164;2022-07-29T08:11:33;10.05;;;5.35;;
19762;SDS011;10040;42.614;23.164;2022-07-29T08:14:01;5.90;;;5.35;;
19762;SDS011;10040;42.614;23.164;2022-07-29T08:16:28;6.32;;;5.38;;
19762;SDS011;10040;42.614;23.164;2022-07-29T08:18:56;6.60;;;5.90;;
19762;SDS011;10040;42.614;23.164;2022-07-29T08:21:23;6.72;;;5.38;;
19762;SDS011;10040;42.614;23.164;2022-07-29T08:23:51;5.63;;;5.05;;
19762;SDS011;10040;42.614;23.164;2022-07-29T08:26:41;5.93;;;5.32;;
19762;SDS011;10040;42.614;23.164;2022-07-29T08:29:09;7.43;;;5.50;;
19762;SDS011;10040;42.614;23.164;2022-07-29T08:31:37;6.72;;;5.30;;
19762;SDS011;10040;42.614;23.164;2022-07-29T08:34:05;6.40;;;5.00;;
19762;SDS011;10040;42.614;23.164;2022-07-29T08:36:33;10.88;;;5.20;;
19762;SDS011;10040;42.614;23.164;2022-07-29T08:39:01;5.80;;;5.13;;
19762;SDS011;10040;42.614;23.164;2022-07-29T08:41:30;8.85;;;6.10;;
19762;SDS011;10040;42.614;23.164;2022-07-29T08:43:59;6.03;;;5.22;;
19762;SDS011;10040;42.614;23.164;2022-07-29T08:46:26;5.63;;;5.10;;
19762;SDS011;10040;42.614;23.164;2022-07-29T08:49:12;9.02;;;5.38;;
19762;SDS011;10040;42.614;23.164;2022-07-29T08:51:40;5.90;;;5.00;;
19762;SDS011;10040;42.614;23.164;2022-07-29T08:54:08;6.45;;;4.80;;
19762;SDS011;10040;42.614;23.164;2022-07-29T08:56:36;6.50;;;5.15;;
19762;SDS011;10040;42.614;23.164;2022-07-29T08:59:06;7.35;;;4.55;;
19762;SDS011;10040;42.614;23.164;2022-07-29T09:01:37;5.60;;;5.10;;
19762;SDS011;10040;42.614;23.164;2022-07-29T09:04:05;9.00;;;5.43;;
19762;SDS011;10040;42.614;23.164;2022-07-29T09:06:39;7.10;;;4.65;;
19762;SDS011;10040;42.614;23.164;2022-07-29T09:09:11;7.68;;;4.82;;
19762;SDS011;10040;42.614;23.164;2022-07-29T09:11:40;5.50;;;4.45;;
19762;SDS011;10040;42.614;23.164;2022-07-29T09:14:09;6.50;;;4.40;;
19762;SDS011;10040;42.614;23.164;2022-07-29T09:16:45;4.85;;;4.43;;
19762;SDS011;10040;42.614;23.164;2022-07-29T09:19:24;6.60;;;4.43;;
19762;SDS011;10040;42.614;23.164;2022-07-29T09:21:55;4.55;;;4.15;;
19762;SDS011;10040;42.614;23.164;2022-07-29T09:24:35;4.95;;;4.43;;
19762;SDS011;10040;42.614;23.164;2022-07-29T09:27:09;4.80;;;4.30;;
19762;SDS011;10040;42.614;23.164;2022-07-29T09:29:45;5.40;;;4.32;;
19762;SDS011;10040;42.614;23.164;2022-07-29T09:32:13;6.80;;;4.47;;
19762;SDS011;10040;42.614;23.164;2022-07-29T09:34:41;7.18;;;4.18;;
19762;SDS011;10040;42.614;23.164;2022-07-29T09:37:08;5.57;;;4.22;;
19762;SDS011;10040;42.614;23.164;2022-07-29T09:39:37;5.47;;;4.45;;
19762;SDS011;10040;42.614;23.164;2022-07-29T09:42:11;5.07;;;4.55;;
19762;SDS011;10040;42.614;23.164;2022-07-29T09:44:43;6.35;;;4.43;;
19762;SDS011;10040;42.614;23.164;2022-07-29T09:47:15;5.07;;;4.68;;
19762;SDS011;10040;42.614;23.164;2022-07-29T09:49:50;5.30;;;4.80;;
19762;SDS011;10040;42.614;23.164;2022-07-29T09:52:19;5.00;;;3.92;;
19762;SDS011;10040;42.614;23.164;2022-07-29T09:54:47;5.80;;;4.50;;
19762;SDS011;10040;42.614;23.164;2022-07-29T09:57:22;4.60;;;4.13;;
19762;SDS011;10040;42.614;23.164;2022-07-29T09:59:57;5.20;;;4.40;;
19762;SDS011;10040;42.614;23.164;2022-07-29T10:02:31;5.88;;;4.32;;
19762;SDS011;10040;42.614;23.164;2022-07-29T10:05:01;5.40;;;4.68;;
19762;SDS011;10040;42.614;23.164;2022-07-29T10:07:42;7.05;;;3.95;;
19762;SDS011;10040;42.614;23.164;2022-07-29T10:10:18;4.70;;;4.30;;
19762;SDS011;10040;42.614;23.164;2022-07-29T10:12:51;4.43;;;4.07;;
19762;SDS011;10040;42.614;23.164;2022-07-29T10:15:22;7.80;;;4.25;;
19762;SDS011;10040;42.614;23.164;2022-07-29T10:17:52;4.78;;;4.38;;
19762;SDS011;10040;42.614;23.164;2022-07-29T10:20:20;5.28;;;4.07;;
19762;SDS011;10040;42.614;23.164;2022-07-29T10:22:49;4.60;;;4.20;;
19762;SDS011;10040;42.614;23.164;2022-07-29T10:25:17;6.47;;;4.30;;
19762;SDS011;10040;42.614;23.164;2022-07-29T10:27:46;5.68;;;4.45;;
19762;SDS011;10040;42.614;23.164;2022-07-29T10:30:15;5.93;;;5.40;;
19762;SDS011;10040;42.614;23.164;2022-07-29T10:32:50;5.43;;;4.93;;
19762;SDS011;10040;42.614;23.164;2022-07-29T10:35:38;5.70;;;4.95;;
19762;SDS011;10040;42.614;23.164;2022-07-29T10:41:12;8.35;;;5.28;;
19762;SDS011;10040;42.614;23.164;2022-07-29T10:43:56;7.47;;;5.95;;
19762;SDS011;10040;42.614;23.164;2022-07-29T10:46:26;6.70;;;6.05;;
19762;SDS011;10040;42.614;23.164;2022-07-29T10:49:05;9.82;;;7.05;;
19762;SDS011;10040;42.614;23.164;2022-07-29T10:51:53;7.03;;;6.43;;
19762;SDS011;10040;42.614;23.164;2022-07-29T10:54:41;6.90;;;6.30;;
19762;SDS011;10040;42.614;23.164;2022-07-29T10:57:14;8.10;;;6.18;;
19762;SDS011;10040;42.614;23.164;2022-07-29T10:59:45;7.38;;;6.68;;
19762;SDS011;10040;42.614;23.164;2022-07-29T11:05:18;9.00;;;6.85;;
19762;SDS011;10040;42.614;23.164;2022-07-29T11:10:48;7.63;;;6.50;;
19762;SDS011;10040;42.614;23.164;2022-07-29T11:16:12;6.85;;;6.18;;
19762;SDS011;10040;42.614;23.164;2022-07-29T11:21:47;11.32;;;6.13;;
19762;SDS011;10040;42.614;23.164;2022-07-29T11:24:16;6.95;;;6.30;;
19762;SDS011;10040;42.614;23.164;2022-07-29T11:29:37;7.00;;;6.30;;
19762;SDS011;10040;42.614;23.164;2022-07-29T11:32:10;6.55;;;5.95;;
19762;SDS011;10040;42.614;23.164;2022-07-29T11:34:40;7.28;;;6.53;;
19762;SDS011;10040;42.614;23.164;2022-07-29T11:37:16;6.95;;;6.28;;
19762;SDS011;10040;42.614;23.164;2022-07-29T11:40:07;6.00;;;5.40;;
19762;SDS011;10040;42.614;23.164;2022-07-29T11:42:40;8.00;;;5.50;;
19762;SDS011;10040;42.614;23.164;2022-07-29T11:45:15;7.28;;;6.30;;
19762;SDS011;10040;42.614;23.164;2022-07-29T11:47:48;7.18;;;6.30;;
19762;SDS011;10040;42.614;23.164;2022-07-29T11:50:18;7.10;;;6.40;;
19762;SDS011;10040;42.614;23.164;2022-07-29T11:52:56;8.32;;;6.47;;
19762;SDS011;10040;42.614;23.164;2022-07-29T11:55:24;8.88;;;7.13;;
19762;SDS011;10040;42.614;23.164;2022-07-29T11:57:52;7.05;;;5.68;;
19762;SDS011;10040;42.614;23.164;2022-07-29T12:00:22;7.28;;;6.43;;
19762;SDS011;10040;42.614;23.164;2022-07-29T12:02:51;8.40;;;6.13;;
19762;SDS011;10040;42.614;23.164;2022-07-29T12:05:19;6.90;;;6.30;;
19762;SDS011;10040;42.614;23.164;2022-07-29T12:07:47;8.63;;;6.10;;
19762;SDS011;10040;42.614;23.164;2022-07-29T12:10:17;7.00;;;5.97;;
19762;SDS011;10040;42.614;23.164;2022-07-29T12:12:44;9.07;;;6.30;;
19762;SDS011;10040;42.614;23.164;2022-07-29T12:15:18;7.80;;;7.05;;
19762;SDS011;10040;42.614;23.164;2022-07-29T12:17:47;8.50;;;7.60;;
19762;SDS011;10040;42.614;23.164;2022-07-29T12:20:21;7.97;;;7.22;;
19762;SDS011;10040;42.614;23.164;2022-07-29T12:22:50;7.63;;;6.97;;
19762;SDS011;10040;42.614;23.164;2022-07-29T12:25:21;9.10;;;7.10;;
19762;SDS011;10040;42.614;23.164;2022-07-29T12:27:59;8.30;;;7.50;;
19762;SDS011;10040;42.614;23.164;2022-07-29T12:30:34;9.40;;;7.68;;
19762;SDS011;10040;42.614;23.164;2022-07-29T12:33:16;10.80;;;8.30;;
19762;SDS011;10040;42.614;23.164;2022-07-29T12:35:46;9.02;;;7.65;;
19762;SDS011;10040;42.614;23.164;2022-07-29T12:38:16;10.80;;;7.25;;
19762;SDS011;10040;42.614;23.164;2022-07-29T12:40:46;11.82;;;7.47;;
19762;SDS011;10040;42.614;23.164;2022-07-29T12:43:16;11.48;;;8.05;;
19762;SDS011;10040;42.614;23.164;2022-07-29T12:45:46;8.80;;;7.80;;
19762;SDS011;10040;42.614;23.164;2022-07-29T12:48:16;8.02;;;6.85;;
19762;SDS011;10040;42.614;23.164;2022-07-29T12:50:54;9.55;;;6.90;;
19762;SDS011;10040;42.614;23.164;2022-07-29T12:53:22;8.07;;;7.28;;
19762;SDS011;10040;42.614;23.164;2022-07-29T12:55:52;7.32;;;6.40;;
19762;SDS011;10040;42.614;23.164;2022-07-29T12:58:28;6.60;;;5.90;;
19762;SDS011;10040;42.614;23.164;2022-07-29T13:01:01;6.85;;;6.20;;
19762;SDS011;10040;42.614;23.164;2022-07-29T13:03:49;6.38;;;5.88;;
19762;SDS011;10040;42.614;23.164;2022-07-29T13:06:31;6.88;;;6.28;;
19762;SDS011;10040;42.614;23.164;2022-07-29T13:09:04;6.97;;;6.35;;
19762;SDS011;10040;42.614;23.164;2022-07-29T13:11:39;6.22;;;5.68;;
19762;SDS011;10040;42.614;23.164;2022-07-29T13:14:08;6.95;;;6.25;;
19762;SDS011;10040;42.614;23.164;2022-07-29T13:16:38;7.07;;;6.00;;
19762;SDS011;10040;42.614;23.164;2022-07-29T13:19:35;8.20;;;6.20;;
19762;SDS011;10040;42.614;23.164;2022-07-29T13:22:04;6.78;;;6.15;;
19762;SDS011;10040;42.614;23.164;2022-07-29T13:24:31;6.57;;;6.03;;
19762;SDS011;10040;42.614;23.164;2022-07-29T13:27:00;7.28;;;6.47;;
19762;SDS011;10040;42.614;23.164;2022-07-29T13:29:28;6.60;;;6.00;;
19762;SDS011;10040;42.614;23.164;2022-07-29T13:31:55;5.63;;;5.05;;
19762;SDS011;10040;42.614;23.164;2022-07-29T13:34:23;8.75;;;5.55;;
19762;SDS011;10040;42.614;23.164;2022-07-29T13:36:50;5.57;;;5.00;;
19762;SDS011;10040;42.614;23.164;2022-07-29T13:39:17;5.50;;;5.00;;
19762;SDS011;10040;42.614;23.164;2022-07-29T13:41:45;5.78;;;4.63;;
19762;SDS011;10040;42.614;23.164;2022-07-29T13:44:14;5.68;;;4.65;;
19762;SDS011;10040;42.614;23.164;2022-07-29T13:46:42;5.00;;;4.50;;
19762;SDS011;10040;42.614;23.164;2022-07-29T13:49:09;8.05;;;4.40;;
19762;SDS011;10040;42.614;23.164;2022-07-29T13:51:37;6.32;;;4.55;;
19762;SDS011;10040;42.614;23.164;2022-07-29T13:54:04;5.18;;;4.60;;
19762;SDS011;10040;42.614;23.164;2022-07-29T13:56:32;6.22;;;4.82;;
19762;SDS011;10040;42.614;23.164;2022-07-29T13:59:00;9.05;;;5.18;;
19762;SDS011;10040;42.614;23.164;2022-07-29T14:01:29;7.05;;;5.10;;
19762;SDS011;10040;42.614;23.164;2022-07-29T14:03:57;8.20;;;5.13;;
19762;SDS011;10040;42.614;23.164;2022-07-29T14:06:24;7.95;;;5.07;;
19762;SDS011;10040;42.614;23.164;2022-07-29T14:08:52;9.77;;;5.38;;
19762;SDS011;10040;42.614;23.164;2022-07-29T14:11:19;7.80;;;5.25;;
19762;SDS011;10040;42.614;23.164;2022-07-29T14:13:47;5.65;;;5.13;;
19762;SDS011;10040;42.614;23.164;2022-07-29T14:16:14;9.68;;;6.00;;
19762;SDS011;10040;42.614;23.164;2022-07-29T14:18:43;6.75;;;5.47;;
19762;SDS011;10040;42.614;23.164;2022-07-29T14:21:10;11.10;;;5.35;;
19762;SDS011;10040;42.614;23.164;2022-07-29T14:23:39;6.30;;;5.63;;
19762;SDS011;10040;42.614;23.164;2022-07-29T14:26:06;6.05;;;5.15;;
19762;SDS011;10040;42.614;23.164;2022-07-29T14:28:33;6.18;;;5.57;;
19762;SDS011;10040;42.614;23.164;2022-07-29T14:31:01;5.72;;;4.60;;
19762;SDS011;10040;42.614;23.164;2022-07-29T14:33:29;8.00;;;5.13;;
19762;SDS011;10040;42.614;23.164;2022-07-29T14:35:57;5.38;;;4.70;;
19762;SDS011;10040;42.614;23.164;2022-07-29T14:38:25;5.60;;;4.60;;
19762;SDS011;10040;42.614;23.164;2022-07-29T14:40:53;6.35;;;4.80;;
19762;SDS011;10040;42.614;23.164;2022-07-29T14:43:20;5.30;;;4.90;;
19762;SDS011;10040;42.614;23.164;2022-07-29T14:45:47;6.18;;;4.72;;
19762;SDS011;10040;42.614;23.164;2022-07-29T14:48:15;5.88;;;4.85;;
19762;SDS011;10040;42.614;23.164;2022-07-29T14:50:42;5.05;;;4.65;;
19762;SDS011;10040;42.614;23.164;2022-07-29T14:53:11;5.63;;;5.13;;
19762;SDS011;10040;42.614;23.164;2022-07-29T14:55:39;7.72;;;5.10;;
19762;SDS011;10040;42.614;23.164;2022-07-29T14:58:07;5.82;;;4.90;;
19762;SDS011;10040;42.614;23.164;2022-07-29T15:00:35;7.30;;;5.45;;
19762;SDS011;10040;42.614;23.164;2022-07-29T15:03:03;6.75;;;5.20;;
19762;SDS011;10040;42.614;23.164;2022-07-29T15:05:31;6.28;;;5.20;;
19762;SDS011;10040;42.614;23.164;2022-07-29T15:07:58;5.65;;;5.15;;